KFNT/FNT METAR and TAF weather

Enter ICAO airport designator
Station Type Date Time Source
KFNT METAR 2021/07/26 13:53 UTC NOAA

KFNT 261353Z 28005KT 10SM CLR 25/18 A3000 RMK AO2 SLP154 T02500178


Station Type Date Time Source
KFNT Decoded METAR 2021/07/26 13:53 UTC NOAA

FLINT BISHOP INTERNATIONAL AIRPORT, MI, United States (KFNT) 42-58N 83-45W 233M
Jul 26, 2021 - 09:53 AM EDT / 2021.07.26 1353 UTC
Wind: from the W (280 degrees) at 6 MPH (5 KT):0
Visibility: 10 mile(s):0
Sky conditions: clear
Temperature: 77.0 F (25.0 C)
Dew Point: 64.0 F (17.8 C)
Relative Humidity: 64%
Pressure (altimeter): 30 in. Hg (1015 hPa)
ob: KFNT 261353Z 28005KT 10SM CLR 25/18 A3000 RMK AO2 SLP154 T02500178
cycle: 14

Station Type Date Time Source
KFNT TAF 2021/07/26 12:33 UTC NOAA

TAF KFNT 261130Z 2612/2712 29003KT P6SM SKC
FM261600 30008KT P6SM FEW070
FM270000 20003KT P6SM SKC
FM270900 24005KT P6SM BKN100

Example: see airport list